Hovedside
METAR-TAF:

METAR-TAF

Lufthavner :

Kiruna lufthavn

Kiruna, Sverige

breddegrad: 67-49N, lengdegrad: 020-20E, høyde over havet: 452 m

Gjeldene værobservasjon

Denne rapporten ble laget for 21 minutter siden, klokken 05:20 UTC
Vind 3 kt fra Nord-nordøst
Temperatur -4°C
Luftfuktighet 93%
Trykk 1004 hPa
Sikt: 2100 m
lett snø

METAR: ESNQ 240520Z AUTO 02003KT 2100 -SN VV017 M04/M05 Q1004

Tid: 07:41 (05:41 UTC)

Varsel

Denne rapporten ble laget for 3 timer og 11 minutter siden, klokken 02:30 UTC
Varsel gyldig fra 24. klokken 03 UTC til 24. klokken 12 UTC
Vind 7 kt fra Sør-sørøst
Sikt: 8000 m
Brutte skyer i en høyde av 3000 ft
lett snø
Midlertidig
fra 24. klokken 03 UTC til 24. klokken 12 UTC
Sikt: 1200 m
i en høyde av 800 ft
snø

TAF: ESNQ 240230Z 2403/2412 15007KT 8000 -SN BKN030 TEMPO 2403/2412 1200 SN VV008

Værobservasjoner og værvarsel for over 4000 flyplasser (METAR- og TAF-rapporter).

Tilgjengelige stasjoner er representert av de røde og gule prikkene på kartet.

Hold musepekeren over prikken for å se navnet på stasjonen.

Klikk så for å se værobservasjoner og -varsler.

For å forandre kartet kan du klikke på den grønne knappen med svart kryss for å zoome inn, på den grønne knappen med strek for å zoome ut, eller på de grønne pilene for å se tilstøtende kart.


METAR-TAF: